createdAt,value
2022-11-14T00:02:10.986Z,33.40
2022-11-14T00:05:23.703Z,35.60
2022-11-14T00:08:35.069Z,35.50
2022-11-14T00:11:46.679Z,36.60
2022-11-14T00:14:58.224Z,36.53
2022-11-14T00:18:10.063Z,35.67
2022-11-14T00:21:21.045Z,36.40
2022-11-14T00:24:32.671Z,34.80
2022-11-14T00:27:43.780Z,34.27
2022-11-14T00:30:55.071Z,34.67
2022-11-14T00:34:06.349Z,33.53
2022-11-14T00:37:17.000Z,34.23
2022-11-14T00:40:27.703Z,34.73
2022-11-14T00:43:39.056Z,35.63
2022-11-14T00:46:50.219Z,34.70
2022-11-14T00:50:00.833Z,37.23
2022-11-14T00:53:12.466Z,36.17
2022-11-14T00:56:23.807Z,37.30
2022-11-14T00:59:35.313Z,38.07
2022-11-14T01:02:47.385Z,38.17
2022-11-14T01:05:58.749Z,40.33
2022-11-14T01:09:09.992Z,38.10
2022-11-14T01:12:21.071Z,38.33
2022-11-14T01:15:32.305Z,39.93
2022-11-14T01:18:44.506Z,41.30
2022-11-14T01:21:55.200Z,40.60
2022-11-14T01:25:07.191Z,40.53
2022-11-14T01:28:20.927Z,39.27
2022-11-14T01:31:32.695Z,40.27
2022-11-14T01:34:43.688Z,39.17
2022-11-14T01:37:54.577Z,37.87
2022-11-14T01:41:06.469Z,38.03
2022-11-14T01:44:39.668Z,37.23
2022-11-14T01:47:50.950Z,37.33
2022-11-14T01:51:07.144Z,37.00
2022-11-14T01:54:22.408Z,36.50
2022-11-14T01:57:35.856Z,36.43
2022-11-14T02:00:47.594Z,33.53
2022-11-14T02:04:03.397Z,35.67
2022-11-14T02:07:17.559Z,36.30
2022-11-14T02:10:28.561Z,35.80
2022-11-14T02:13:39.682Z,36.40
2022-11-14T02:17:14.362Z,36.43
2022-11-14T02:20:28.881Z,37.73
2022-11-14T02:23:40.517Z,37.63
2022-11-14T02:26:51.780Z,36.77
2022-11-14T02:30:12.294Z,36.00
2022-11-14T02:33:23.023Z,38.13
2022-11-14T02:36:34.340Z,36.83
2022-11-14T02:39:45.164Z,38.33
2022-11-14T02:42:56.414Z,38.40
2022-11-14T02:46:08.079Z,37.07
2022-11-14T02:49:19.064Z,36.73
2022-11-14T02:52:30.724Z,37.57
2022-11-14T02:55:42.149Z,38.70
2022-11-14T02:58:53.430Z,37.03
2022-11-14T03:02:04.684Z,37.63
2022-11-14T03:05:16.390Z,37.37
2022-11-14T03:08:27.467Z,37.83
2022-11-14T03:11:40.105Z,38.60
2022-11-14T03:14:51.480Z,38.70
2022-11-14T03:18:04.251Z,39.25
2022-11-14T03:21:17.079Z,38.40
2022-11-14T03:24:27.886Z,37.42
2022-11-14T03:27:38.896Z,35.90
2022-11-14T03:30:50.132Z,35.40
2022-11-14T03:34:01.166Z,34.40
2022-11-14T03:37:12.350Z,34.80
2022-11-14T03:40:23.409Z,34.03
2022-11-14T03:43:36.315Z,34.17
2022-11-14T03:46:47.877Z,33.77
2022-11-14T03:49:58.832Z,33.87
2022-11-14T03:53:09.816Z,33.63
2022-11-14T03:56:20.612Z,34.23
2022-11-14T03:59:31.735Z,33.47
2022-11-14T04:02:43.176Z,35.17
2022-11-14T04:05:54.743Z,34.53
2022-11-14T04:09:05.807Z,34.93
2022-11-14T04:12:16.599Z,33.30
2022-11-14T04:15:27.332Z,33.87
2022-11-14T04:18:38.767Z,34.43
2022-11-14T04:21:49.908Z,32.57
2022-11-14T04:25:00.936Z,33.30
2022-11-14T04:28:11.819Z,36.20
2022-11-14T04:31:25.290Z,33.40
2022-11-14T04:34:36.646Z,34.87
2022-11-14T04:37:47.982Z,34.50
2022-11-14T04:40:59.019Z,34.17
2022-11-14T04:44:10.259Z,33.93
2022-11-14T04:47:21.352Z,33.47
2022-11-14T04:50:32.811Z,32.43
2022-11-14T04:53:43.730Z,34.60
2022-11-14T04:56:54.991Z,32.33
2022-11-14T05:00:07.966Z,34.53
2022-11-14T05:03:18.556Z,34.73
2022-11-14T05:06:29.437Z,35.30
2022-11-14T05:09:40.927Z,32.90
2022-11-14T05:12:54.456Z,32.93
2022-11-14T05:16:06.757Z,33.67
2022-11-14T05:19:18.079Z,34.50
2022-11-14T05:22:30.292Z,35.53
2022-11-14T05:25:41.024Z,34.33
2022-11-14T05:28:51.893Z,36.33
2022-11-14T05:32:02.569Z,35.70
2022-11-14T05:35:14.757Z,37.40
2022-11-14T05:38:25.566Z,36.30
2022-11-14T05:41:36.643Z,34.97
2022-11-14T05:44:47.095Z,35.20
2022-11-14T05:47:58.369Z,34.17
2022-11-14T05:51:12.056Z,36.63
2022-11-14T05:54:22.767Z,34.30
2022-11-14T05:57:33.680Z,36.10
2022-11-14T06:00:51.986Z,36.43
2022-11-14T06:04:07.151Z,35.47
2022-11-14T06:07:20.413Z,35.97
2022-11-14T06:10:31.863Z,37.20
2022-11-14T06:13:43.846Z,38.50
2022-11-14T06:16:55.450Z,37.42
2022-11-14T06:20:10.349Z,35.27
2022-11-14T06:23:24.744Z,36.30
2022-11-14T06:26:36.735Z,35.10
2022-11-14T06:29:47.763Z,37.07
2022-11-14T06:33:02.047Z,36.63
2022-11-14T06:36:14.594Z,35.77
2022-11-14T06:42:36.782Z,35.63
2022-11-14T06:45:47.870Z,35.20
2022-11-14T06:49:00.167Z,34.73
2022-11-14T06:52:10.752Z,34.97
2022-11-14T06:55:25.295Z,35.23
2022-11-14T06:58:39.061Z,35.47
2022-11-14T07:04:59.054Z,34.57
2022-11-14T07:08:10.762Z,36.63
2022-11-14T07:11:24.031Z,37.60
2022-11-14T07:14:35.547Z,35.73
2022-11-14T07:17:46.420Z,37.67
2022-11-14T07:21:03.647Z,38.60
2022-11-14T07:24:14.419Z,38.17
2022-11-14T07:27:25.188Z,34.83
2022-11-14T07:30:36.515Z,37.65
2022-11-14T07:33:48.977Z,35.30
2022-11-14T07:36:59.905Z,37.40
2022-11-14T07:40:14.158Z,37.03
2022-11-14T07:43:26.080Z,38.80
2022-11-14T07:49:47.641Z,38.87
2022-11-14T07:52:59.333Z,37.20
2022-11-14T07:56:12.120Z,37.53
2022-11-14T07:59:23.132Z,37.95
2022-11-14T08:02:33.842Z,39.80
2022-11-14T08:05:52.247Z,38.13
2022-11-14T08:09:03.861Z,38.20
2022-11-14T08:12:15.243Z,37.30
2022-11-14T08:15:28.338Z,37.47
2022-11-14T08:18:39.583Z,38.17
2022-11-14T08:21:50.357Z,36.97
2022-11-14T08:25:01.378Z,34.63
2022-11-14T08:28:12.941Z,38.13
2022-11-14T08:31:25.137Z,35.90
2022-11-14T08:34:37.102Z,37.73
2022-11-14T08:37:48.184Z,35.63
2022-11-14T08:41:03.221Z,37.03
2022-11-14T08:44:13.757Z,34.73
2022-11-14T08:47:24.857Z,33.97
2022-11-14T08:50:37.016Z,35.23
2022-11-14T08:53:48.495Z,35.47
2022-11-14T08:56:59.526Z,33.87
2022-11-14T09:00:14.251Z,31.10
2022-11-14T09:03:25.442Z,31.83
2022-11-14T09:06:37.057Z,31.53
2022-11-14T09:09:48.489Z,29.00
2022-11-14T09:13:01.789Z,31.60
2022-11-14T09:16:15.230Z,32.20
2022-11-14T09:19:26.366Z,29.17
2022-11-14T09:22:37.196Z,30.63
2022-11-14T09:25:48.095Z,30.83
2022-11-14T09:28:58.500Z,29.90
2022-11-14T09:32:11.046Z,31.00
2022-11-14T09:35:22.576Z,31.40
2022-11-14T09:38:38.668Z,29.67
2022-11-14T09:42:02.470Z,29.60
2022-11-14T09:45:18.224Z,30.07
2022-11-14T09:48:32.618Z,30.83
2022-11-14T09:51:51.669Z,28.47
2022-11-14T09:55:12.175Z,28.70
2022-11-14T09:58:24.541Z,27.30
2022-11-14T10:01:46.498Z,29.18
2022-11-14T10:05:11.007Z,28.70
2022-11-14T10:08:43.494Z,27.20
2022-11-14T10:12:01.549Z,29.53
2022-11-14T10:15:33.583Z,28.20
2022-11-14T10:19:15.814Z,27.30
2022-11-14T10:22:42.650Z,27.93
2022-11-14T10:26:12.169Z,27.03
2022-11-14T10:29:52.526Z,26.80
2022-11-14T10:33:19.517Z,25.47
2022-11-14T10:36:46.722Z,25.73
2022-11-14T10:40:11.227Z,26.10
2022-11-14T10:43:27.716Z,24.87
2022-11-14T10:46:44.031Z,26.00
2022-11-14T10:49:57.488Z,25.87
2022-11-14T10:53:18.068Z,25.63
2022-11-14T10:56:28.940Z,24.97
2022-11-14T10:59:40.423Z,24.00
2022-11-14T11:02:56.928Z,27.20
2022-11-14T11:06:26.135Z,27.73
2022-11-14T11:09:59.743Z,26.77
2022-11-14T11:13:15.748Z,25.77
2022-11-14T11:16:29.177Z,26.63
2022-11-14T11:19:42.031Z,24.67
2022-11-14T11:23:03.587Z,24.82
2022-11-14T11:26:27.159Z,24.83
2022-11-14T11:29:38.519Z,26.33
2022-11-14T11:32:49.671Z,27.00
2022-11-14T11:36:04.060Z,25.90
2022-11-14T11:39:24.847Z,26.00
2022-11-14T11:43:31.684Z,26.43
2022-11-14T11:46:20.036Z,26.30
2022-11-14T11:49:42.991Z,25.40
2022-11-14T11:53:02.877Z,25.85
2022-11-14T11:56:17.843Z,24.47
2022-11-14T11:59:39.569Z,24.30
2022-11-14T12:02:54.176Z,25.97
2022-11-14T12:06:16.065Z,24.57
2022-11-14T12:10:03.510Z,24.65
2022-11-14T12:13:31.751Z,24.70
2022-11-14T12:17:13.098Z,24.97
2022-11-14T12:20:55.450Z,24.77
2022-11-14T12:24:35.769Z,24.00
2022-11-14T12:27:59.661Z,24.33
2022-11-14T12:31:17.061Z,24.33
2022-11-14T12:34:33.439Z,23.27
2022-11-14T12:37:55.290Z,24.87
2022-11-14T12:41:08.601Z,24.27
2022-11-14T12:44:33.668Z,23.85
2022-11-14T12:48:25.002Z,24.53
2022-11-14T12:51:55.718Z,23.33
2022-11-14T12:55:28.247Z,25.63
2022-11-14T12:59:12.395Z,25.45
2022-11-14T13:02:53.684Z,25.07
2022-11-14T13:06:09.381Z,24.80
2022-11-14T13:09:34.065Z,24.63
2022-11-14T13:13:15.457Z,23.67
2022-11-14T13:16:50.086Z,24.00
2022-11-14T13:20:19.597Z,24.87
2022-11-14T13:23:59.436Z,22.53
2022-11-14T13:27:52.203Z,23.60
2022-11-14T13:31:22.510Z,22.13
2022-11-14T13:34:52.177Z,24.17
2022-11-14T13:38:21.551Z,21.97
2022-11-14T13:41:58.431Z,23.20
2022-11-14T13:45:49.658Z,22.03
2022-11-14T13:49:15.146Z,22.47
2022-11-14T13:52:30.157Z,21.47
2022-11-14T13:55:58.055Z,22.57
2022-11-14T13:59:39.467Z,21.70
2022-11-14T14:03:15.915Z,22.50
2022-11-14T14:06:49.644Z,22.87
2022-11-14T14:10:10.692Z,21.40
2022-11-14T14:13:36.928Z,24.23
2022-11-14T14:16:55.278Z,23.40
2022-11-14T14:20:23.424Z,21.93
2022-11-14T14:23:44.766Z,21.93
2022-11-14T14:27:09.546Z,23.57
2022-11-14T14:30:23.238Z,22.97
2022-11-14T14:33:43.650Z,23.53
2022-11-14T14:36:56.062Z,23.90
2022-11-14T14:40:24.190Z,25.82
2022-11-14T14:43:36.700Z,28.33
2022-11-14T14:46:47.627Z,28.57
2022-11-14T14:49:59.519Z,26.40
2022-11-14T14:53:21.347Z,27.42
2022-11-14T14:56:33.047Z,28.23
2022-11-14T14:59:44.835Z,27.33
2022-11-14T15:02:57.156Z,28.10
2022-11-14T15:06:22.931Z,29.17
2022-11-14T15:09:33.839Z,29.83
2022-11-14T15:12:45.892Z,30.40
2022-11-14T15:15:58.132Z,28.87
2022-11-14T15:19:14.099Z,28.85
2022-11-14T15:22:29.282Z,27.30
2022-11-14T15:25:40.932Z,27.50
2022-11-14T15:28:52.954Z,27.87
2022-11-14T15:32:05.986Z,27.20
2022-11-14T15:35:29.628Z,27.37
2022-11-14T15:38:44.388Z,28.53
2022-11-14T15:42:15.325Z,28.27
2022-11-14T15:45:29.924Z,29.27
2022-11-14T15:48:44.684Z,30.67
2022-11-14T15:51:58.296Z,30.77
2022-11-14T15:55:17.898Z,26.80
2022-11-14T15:58:29.508Z,25.33
2022-11-14T16:01:41.105Z,22.77
2022-11-14T16:04:54.695Z,21.95
2022-11-14T16:08:06.420Z,21.20
2022-11-14T16:11:18.202Z,20.90
2022-11-14T16:14:30.508Z,20.48
2022-11-14T16:17:43.793Z,20.23
2022-11-14T16:24:04.228Z,19.27
2022-11-14T16:27:15.646Z,20.27
2022-11-14T16:30:28.424Z,18.73
2022-11-14T16:33:39.684Z,19.07
2022-11-14T16:36:51.981Z,17.47
2022-11-14T16:43:15.780Z,18.23
2022-11-14T16:46:28.962Z,21.33
2022-11-14T16:49:40.024Z,19.40
2022-11-14T16:52:51.429Z,19.37
2022-11-14T16:56:02.709Z,19.57
2022-11-14T16:59:14.814Z,19.73
2022-11-14T17:02:26.231Z,19.10
2022-11-14T17:05:43.243Z,20.93
2022-11-14T17:08:58.762Z,20.10
2022-11-14T17:12:10.446Z,18.87
2022-11-14T17:15:22.081Z,19.73
2022-11-14T17:18:38.437Z,19.43
2022-11-14T17:21:49.975Z,19.30
2022-11-14T17:25:01.433Z,18.20
2022-11-14T17:28:13.250Z,16.93
2022-11-14T17:31:24.229Z,16.97
2022-11-14T17:34:35.718Z,17.83
2022-11-14T17:37:46.649Z,16.63
2022-11-14T17:41:01.553Z,17.93
2022-11-14T17:44:13.015Z,16.23
2022-11-14T17:47:24.120Z,17.33
2022-11-14T17:50:37.812Z,17.53
2022-11-14T17:53:49.349Z,18.57
2022-11-14T17:57:01.235Z,18.77
2022-11-14T18:00:16.413Z,18.70
2022-11-14T18:03:28.479Z,19.53
2022-11-14T18:06:39.786Z,18.53
2022-11-14T18:09:51.498Z,18.90
2022-11-14T18:13:05.248Z,18.37
2022-11-14T18:16:18.295Z,18.43
2022-11-14T18:19:29.774Z,17.77
2022-11-14T18:22:42.118Z,18.13
2022-11-14T18:25:53.055Z,18.10
2022-11-14T18:29:05.341Z,18.30
2022-11-14T18:32:17.165Z,17.87
2022-11-14T18:35:28.600Z,17.43
2022-11-14T18:38:39.853Z,17.03
2022-11-14T18:41:50.718Z,16.63
2022-11-14T18:45:01.548Z,16.77
2022-11-14T18:48:12.868Z,17.37
2022-11-14T18:51:25.801Z,16.87
2022-11-14T18:54:37.035Z,16.27
2022-11-14T18:57:48.608Z,16.73
2022-11-14T19:00:59.310Z,17.60
2022-11-14T19:04:12.260Z,18.20
2022-11-14T19:07:25.080Z,17.60
2022-11-14T19:13:45.613Z,17.37
2022-11-14T19:16:57.513Z,18.25
2022-11-14T19:20:14.622Z,16.83
2022-11-14T19:23:26.440Z,18.27
2022-11-14T19:26:38.051Z,17.60
2022-11-14T19:29:50.596Z,17.80
2022-11-14T19:33:04.804Z,19.73
2022-11-14T19:36:27.829Z,19.27
2022-11-14T19:43:04.234Z,17.83
2022-11-14T19:46:17.306Z,18.30
2022-11-14T19:49:28.365Z,17.20
2022-11-14T19:52:38.817Z,19.13
2022-11-14T19:55:50.010Z,18.73
2022-11-14T19:59:02.842Z,18.73
2022-11-14T20:02:15.813Z,19.73
2022-11-14T20:05:27.663Z,18.13
2022-11-14T20:08:39.392Z,18.40
2022-11-14T20:11:51.029Z,17.75
2022-11-14T20:15:02.103Z,17.50
2022-11-14T20:18:13.457Z,18.57
2022-11-14T20:21:26.561Z,18.23
2022-11-14T20:27:46.872Z,17.83
2022-11-14T20:31:01.404Z,18.90
2022-11-14T20:34:13.076Z,17.93
2022-11-14T20:37:24.828Z,18.65
2022-11-14T20:40:37.743Z,17.93
2022-11-14T20:43:50.055Z,18.33
2022-11-14T20:47:01.096Z,18.17
2022-11-14T20:50:13.818Z,17.73
2022-11-14T20:53:25.742Z,18.20
2022-11-14T20:56:36.537Z,18.03
2022-11-14T20:59:47.957Z,18.60
2022-11-14T21:03:00.161Z,19.77
2022-11-14T21:06:12.677Z,17.13
2022-11-14T21:09:23.394Z,18.23
2022-11-14T21:12:34.609Z,18.43
2022-11-14T21:15:45.963Z,18.43
2022-11-14T21:18:58.275Z,19.10
2022-11-14T21:22:09.282Z,19.40
2022-11-14T21:25:20.875Z,20.40
2022-11-14T21:28:34.224Z,19.82
2022-11-14T21:31:47.381Z,18.65
2022-11-14T21:38:07.946Z,18.70
2022-11-14T21:41:19.932Z,17.80
2022-11-14T21:44:31.123Z,18.00
2022-11-14T21:47:42.207Z,19.40
2022-11-14T21:50:53.376Z,20.57
2022-11-14T21:54:06.647Z,19.63
2022-11-14T21:57:17.884Z,18.97
2022-11-14T22:00:28.766Z,19.63
2022-11-14T22:03:58.689Z,17.87
2022-11-14T22:07:11.151Z,18.77
2022-11-14T22:10:23.350Z,20.90
2022-11-14T22:13:35.519Z,19.47
2022-11-14T22:16:46.583Z,18.77
2022-11-14T22:19:57.761Z,19.20
2022-11-14T22:23:08.705Z,19.47
2022-11-14T22:26:19.777Z,19.77
2022-11-14T22:29:31.308Z,20.00
2022-11-14T22:32:43.091Z,19.37
2022-11-14T22:35:54.849Z,19.80
2022-11-14T22:39:07.213Z,20.03
2022-11-14T22:42:18.249Z,20.30
2022-11-14T22:45:29.247Z,19.27
2022-11-14T22:48:40.445Z,19.33
2022-11-14T22:51:51.615Z,18.80
2022-11-14T22:55:02.893Z,18.17
2022-11-14T22:58:14.379Z,18.97
2022-11-14T23:01:27.230Z,17.67
2022-11-14T23:04:37.971Z,18.80
2022-11-14T23:07:49.569Z,18.70
2022-11-14T23:11:07.047Z,18.73
2022-11-14T23:14:19.398Z,17.53
2022-11-14T23:17:30.532Z,18.40
2022-11-14T23:20:41.351Z,19.93
2022-11-14T23:23:57.749Z,20.87
2022-11-14T23:27:09.440Z,18.47
2022-11-14T23:30:20.882Z,19.43
2022-11-14T23:33:32.830Z,19.93
2022-11-14T23:36:48.180Z,18.40
2022-11-14T23:39:59.403Z,17.87
2022-11-14T23:43:10.594Z,19.60
2022-11-14T23:46:22.266Z,18.93
2022-11-14T23:49:34.148Z,19.33
2022-11-14T23:52:45.021Z,20.27
2022-11-14T23:56:00.680Z,20.07
2022-11-14T23:59:12.133Z,19.97
